sensor_id;sensor_type;location;lat;lon;timestamp;P1;durP1;ratioP1;P2;durP2;ratioP2
28483;SDS011;15704;48.834;8.736;2023-02-10T00:00:13;46.13;;;21.60;;
28483;SDS011;15704;48.834;8.736;2023-02-10T00:02:40;50.78;;;22.02;;
28483;SDS011;15704;48.834;8.736;2023-02-10T00:05:07;52.47;;;23.15;;
28483;SDS011;15704;48.834;8.736;2023-02-10T00:07:34;54.88;;;23.30;;
28483;SDS011;15704;48.834;8.736;2023-02-10T00:10:00;56.35;;;22.63;;
28483;SDS011;15704;48.834;8.736;2023-02-10T00:12:27;48.28;;;19.35;;
28483;SDS011;15704;48.834;8.736;2023-02-10T00:14:54;43.03;;;19.10;;
28483;SDS011;15704;48.834;8.736;2023-02-10T00:17:20;55.83;;;21.55;;
28483;SDS011;15704;48.834;8.736;2023-02-10T00:19:48;51.25;;;21.13;;
28483;SDS011;15704;48.834;8.736;2023-02-10T00:22:14;45.38;;;19.83;;
28483;SDS011;15704;48.834;8.736;2023-02-10T00:24:41;46.92;;;20.40;;
28483;SDS011;15704;48.834;8.736;2023-02-10T00:27:08;51.50;;;19.60;;
28483;SDS011;15704;48.834;8.736;2023-02-10T00:29:34;44.40;;;19.13;;
28483;SDS011;15704;48.834;8.736;2023-02-10T00:32:01;49.40;;;19.77;;
28483;SDS011;15704;48.834;8.736;2023-02-10T00:34:28;47.83;;;19.83;;
28483;SDS011;15704;48.834;8.736;2023-02-10T00:36:55;50.38;;;21.50;;
28483;SDS011;15704;48.834;8.736;2023-02-10T00:39:21;45.63;;;19.00;;
28483;SDS011;15704;48.834;8.736;2023-02-10T00:41:48;44.20;;;19.73;;
28483;SDS011;15704;48.834;8.736;2023-02-10T00:44:15;45.58;;;20.15;;
28483;SDS011;15704;48.834;8.736;2023-02-10T00:46:41;52.05;;;20.48;;
28483;SDS011;15704;48.834;8.736;2023-02-10T00:49:09;50.50;;;19.75;;
28483;SDS011;15704;48.834;8.736;2023-02-10T00:51:37;49.15;;;19.83;;
28483;SDS011;15704;48.834;8.736;2023-02-10T00:54:04;44.33;;;18.75;;
28483;SDS011;15704;48.834;8.736;2023-02-10T00:56:30;48.45;;;20.55;;
28483;SDS011;15704;48.834;8.736;2023-02-10T00:58:57;50.90;;;21.10;;
28483;SDS011;15704;48.834;8.736;2023-02-10T01:01:24;46.55;;;20.50;;
28483;SDS011;15704;48.834;8.736;2023-02-10T01:03:51;51.33;;;20.77;;
28483;SDS011;15704;48.834;8.736;2023-02-10T01:06:17;51.15;;;21.23;;
28483;SDS011;15704;48.834;8.736;2023-02-10T01:08:44;48.50;;;19.98;;
28483;SDS011;15704;48.834;8.736;2023-02-10T01:11:11;49.92;;;21.65;;
28483;SDS011;15704;48.834;8.736;2023-02-10T01:13:39;51.75;;;19.80;;
28483;SDS011;15704;48.834;8.736;2023-02-10T01:16:09;54.40;;;21.65;;
28483;SDS011;15704;48.834;8.736;2023-02-10T01:18:39;50.35;;;21.83;;
28483;SDS011;15704;48.834;8.736;2023-02-10T01:21:08;49.08;;;21.08;;
28483;SDS011;15704;48.834;8.736;2023-02-10T01:23:36;50.85;;;20.13;;
28483;SDS011;15704;48.834;8.736;2023-02-10T01:26:07;58.45;;;21.88;;
28483;SDS011;15704;48.834;8.736;2023-02-10T01:28:37;56.65;;;22.10;;
28483;SDS011;15704;48.834;8.736;2023-02-10T01:31:11;48.20;;;19.53;;
28483;SDS011;15704;48.834;8.736;2023-02-10T01:33:40;60.83;;;24.05;;
28483;SDS011;15704;48.834;8.736;2023-02-10T01:36:09;57.15;;;22.98;;
28483;SDS011;15704;48.834;8.736;2023-02-10T01:38:41;52.45;;;22.05;;
28483;SDS011;15704;48.834;8.736;2023-02-10T01:41:08;59.72;;;23.58;;
28483;SDS011;15704;48.834;8.736;2023-02-10T01:46:28;48.67;;;20.23;;
28483;SDS011;15704;48.834;8.736;2023-02-10T01:49:07;51.13;;;19.98;;
28483;SDS011;15704;48.834;8.736;2023-02-10T01:51:38;52.10;;;20.48;;
28483;SDS011;15704;48.834;8.736;2023-02-10T01:54:16;50.28;;;21.15;;
28483;SDS011;15704;48.834;8.736;2023-02-10T01:56:46;44.75;;;19.67;;
28483;SDS011;15704;48.834;8.736;2023-02-10T01:59:13;45.10;;;19.40;;
28483;SDS011;15704;48.834;8.736;2023-02-10T02:01:42;52.15;;;20.52;;
28483;SDS011;15704;48.834;8.736;2023-02-10T02:04:09;44.50;;;18.80;;
28483;SDS011;15704;48.834;8.736;2023-02-10T02:06:36;43.85;;;19.23;;
28483;SDS011;15704;48.834;8.736;2023-02-10T02:09:03;35.28;;;16.17;;
28483;SDS011;15704;48.834;8.736;2023-02-10T02:11:50;49.78;;;19.30;;
28483;SDS011;15704;48.834;8.736;2023-02-10T02:14:36;39.30;;;17.17;;
28483;SDS011;15704;48.834;8.736;2023-02-10T02:17:28;44.78;;;16.92;;
28483;SDS011;15704;48.834;8.736;2023-02-10T02:26:07;41.17;;;15.05;;
28483;SDS011;15704;48.834;8.736;2023-02-10T02:34:00;40.17;;;15.98;;
28483;SDS011;15704;48.834;8.736;2023-02-10T02:36:40;36.78;;;16.17;;
28483;SDS011;15704;48.834;8.736;2023-02-10T02:39:09;38.83;;;15.30;;
28483;SDS011;15704;48.834;8.736;2023-02-10T02:41:35;39.63;;;17.40;;
28483;SDS011;15704;48.834;8.736;2023-02-10T02:44:02;34.05;;;14.40;;
28483;SDS011;15704;48.834;8.736;2023-02-10T02:46:34;39.03;;;15.02;;
28483;SDS011;15704;48.834;8.736;2023-02-10T02:51:59;34.33;;;15.23;;
28483;SDS011;15704;48.834;8.736;2023-02-10T02:54:34;34.63;;;13.50;;
28483;SDS011;15704;48.834;8.736;2023-02-10T02:57:27;37.15;;;15.75;;
28483;SDS011;15704;48.834;8.736;2023-02-10T03:00:08;31.60;;;13.75;;
28483;SDS011;15704;48.834;8.736;2023-02-10T03:02:38;37.30;;;15.15;;
28483;SDS011;15704;48.834;8.736;2023-02-10T03:05:11;36.17;;;15.32;;
28483;SDS011;15704;48.834;8.736;2023-02-10T03:07:50;31.10;;;15.15;;
28483;SDS011;15704;48.834;8.736;2023-02-10T03:10:16;39.33;;;15.85;;
28483;SDS011;15704;48.834;8.736;2023-02-10T03:12:43;34.47;;;15.25;;
28483;SDS011;15704;48.834;8.736;2023-02-10T03:15:10;35.92;;;15.23;;
28483;SDS011;15704;48.834;8.736;2023-02-10T03:17:37;38.03;;;15.93;;
28483;SDS011;15704;48.834;8.736;2023-02-10T03:20:04;37.28;;;15.40;;
28483;SDS011;15704;48.834;8.736;2023-02-10T03:22:31;33.88;;;15.10;;
28483;SDS011;15704;48.834;8.736;2023-02-10T03:24:58;36.42;;;15.30;;
28483;SDS011;15704;48.834;8.736;2023-02-10T03:27:25;42.15;;;16.23;;
28483;SDS011;15704;48.834;8.736;2023-02-10T03:29:52;46.67;;;15.32;;
28483;SDS011;15704;48.834;8.736;2023-02-10T03:32:19;44.63;;;16.63;;
28483;SDS011;15704;48.834;8.736;2023-02-10T03:34:46;35.72;;;16.30;;
28483;SDS011;15704;48.834;8.736;2023-02-10T03:37:13;40.05;;;16.13;;
28483;SDS011;15704;48.834;8.736;2023-02-10T03:39:39;36.60;;;15.20;;
28483;SDS011;15704;48.834;8.736;2023-02-10T03:42:06;36.65;;;15.85;;
28483;SDS011;15704;48.834;8.736;2023-02-10T03:44:33;38.20;;;16.08;;
28483;SDS011;15704;48.834;8.736;2023-02-10T03:46:59;40.97;;;16.92;;
28483;SDS011;15704;48.834;8.736;2023-02-10T03:49:26;49.45;;;20.08;;
28483;SDS011;15704;48.834;8.736;2023-02-10T03:51:53;46.92;;;18.90;;
28483;SDS011;15704;48.834;8.736;2023-02-10T03:54:19;43.40;;;17.98;;
28483;SDS011;15704;48.834;8.736;2023-02-10T03:56:46;45.85;;;17.65;;
28483;SDS011;15704;48.834;8.736;2023-02-10T03:59:13;45.83;;;18.38;;
28483;SDS011;15704;48.834;8.736;2023-02-10T04:01:39;42.30;;;18.17;;
28483;SDS011;15704;48.834;8.736;2023-02-10T04:04:06;46.30;;;18.55;;
28483;SDS011;15704;48.834;8.736;2023-02-10T04:06:33;46.78;;;19.40;;
28483;SDS011;15704;48.834;8.736;2023-02-10T04:09:00;50.28;;;19.65;;
28483;SDS011;15704;48.834;8.736;2023-02-10T04:11:26;46.78;;;18.55;;
28483;SDS011;15704;48.834;8.736;2023-02-10T04:13:53;44.85;;;17.92;;
28483;SDS011;15704;48.834;8.736;2023-02-10T04:16:20;49.03;;;18.10;;
28483;SDS011;15704;48.834;8.736;2023-02-10T04:18:49;52.30;;;18.70;;
28483;SDS011;15704;48.834;8.736;2023-02-10T04:21:16;52.38;;;20.02;;
28483;SDS011;15704;48.834;8.736;2023-02-10T04:23:43;54.55;;;19.75;;
28483;SDS011;15704;48.834;8.736;2023-02-10T04:26:10;45.15;;;18.80;;
28483;SDS011;15704;48.834;8.736;2023-02-10T04:28:36;50.15;;;18.45;;
28483;SDS011;15704;48.834;8.736;2023-02-10T04:31:03;52.38;;;20.88;;
28483;SDS011;15704;48.834;8.736;2023-02-10T04:33:31;48.53;;;20.20;;
28483;SDS011;15704;48.834;8.736;2023-02-10T04:35:58;55.30;;;21.35;;
28483;SDS011;15704;48.834;8.736;2023-02-10T04:38:25;45.30;;;20.17;;
28483;SDS011;15704;48.834;8.736;2023-02-10T04:40:51;56.28;;;20.70;;
28483;SDS011;15704;48.834;8.736;2023-02-10T04:43:18;49.17;;;20.08;;
28483;SDS011;15704;48.834;8.736;2023-02-10T04:45:48;48.55;;;20.35;;
28483;SDS011;15704;48.834;8.736;2023-02-10T04:48:28;54.92;;;20.80;;
28483;SDS011;15704;48.834;8.736;2023-02-10T04:50:54;45.80;;;20.48;;
28483;SDS011;15704;48.834;8.736;2023-02-10T04:53:21;65.53;;;24.73;;
28483;SDS011;15704;48.834;8.736;2023-02-10T04:55:48;57.17;;;21.50;;
28483;SDS011;15704;48.834;8.736;2023-02-10T04:58:16;60.22;;;22.02;;
28483;SDS011;15704;48.834;8.736;2023-02-10T05:00:43;58.03;;;22.52;;
28483;SDS011;15704;48.834;8.736;2023-02-10T05:03:10;56.00;;;22.27;;
28483;SDS011;15704;48.834;8.736;2023-02-10T05:05:37;60.65;;;23.70;;
28483;SDS011;15704;48.834;8.736;2023-02-10T05:08:03;55.35;;;22.65;;
28483;SDS011;15704;48.834;8.736;2023-02-10T05:10:30;61.10;;;24.27;;
28483;SDS011;15704;48.834;8.736;2023-02-10T05:12:57;60.92;;;23.73;;
28483;SDS011;15704;48.834;8.736;2023-02-10T05:15:23;62.33;;;25.23;;
28483;SDS011;15704;48.834;8.736;2023-02-10T05:17:50;60.42;;;23.60;;
28483;SDS011;15704;48.834;8.736;2023-02-10T05:20:17;56.08;;;23.05;;
28483;SDS011;15704;48.834;8.736;2023-02-10T05:22:43;55.28;;;23.70;;
28483;SDS011;15704;48.834;8.736;2023-02-10T05:25:10;60.78;;;24.17;;
28483;SDS011;15704;48.834;8.736;2023-02-10T05:27:37;62.33;;;25.52;;
28483;SDS011;15704;48.834;8.736;2023-02-10T05:30:04;59.58;;;23.83;;
28483;SDS011;15704;48.834;8.736;2023-02-10T05:32:32;59.00;;;26.45;;
28483;SDS011;15704;48.834;8.736;2023-02-10T05:34:59;57.42;;;24.17;;
28483;SDS011;15704;48.834;8.736;2023-02-10T05:37:26;61.65;;;23.33;;
28483;SDS011;15704;48.834;8.736;2023-02-10T05:39:52;58.22;;;24.42;;
28483;SDS011;15704;48.834;8.736;2023-02-10T05:42:19;61.40;;;23.63;;
28483;SDS011;15704;48.834;8.736;2023-02-10T05:44:46;56.13;;;22.98;;
28483;SDS011;15704;48.834;8.736;2023-02-10T05:47:13;57.38;;;24.45;;
28483;SDS011;15704;48.834;8.736;2023-02-10T05:49:39;72.93;;;25.00;;
28483;SDS011;15704;48.834;8.736;2023-02-10T05:52:06;62.92;;;24.13;;
28483;SDS011;15704;48.834;8.736;2023-02-10T05:54:33;60.42;;;21.67;;
28483;SDS011;15704;48.834;8.736;2023-02-10T05:57:00;56.15;;;23.13;;
28483;SDS011;15704;48.834;8.736;2023-02-10T05:59:27;59.65;;;23.85;;
28483;SDS011;15704;48.834;8.736;2023-02-10T06:01:54;55.10;;;22.48;;
28483;SDS011;15704;48.834;8.736;2023-02-10T06:04:21;59.05;;;22.98;;
28483;SDS011;15704;48.834;8.736;2023-02-10T06:06:48;53.30;;;21.40;;
28483;SDS011;15704;48.834;8.736;2023-02-10T06:09:15;56.97;;;22.75;;
28483;SDS011;15704;48.834;8.736;2023-02-10T06:11:42;61.75;;;22.75;;
28483;SDS011;15704;48.834;8.736;2023-02-10T06:14:08;63.92;;;24.48;;
28483;SDS011;15704;48.834;8.736;2023-02-10T06:16:35;60.50;;;22.98;;
28483;SDS011;15704;48.834;8.736;2023-02-10T06:19:02;52.33;;;22.30;;
28483;SDS011;15704;48.834;8.736;2023-02-10T06:21:29;60.80;;;23.42;;
28483;SDS011;15704;48.834;8.736;2023-02-10T06:23:56;52.28;;;21.15;;
28483;SDS011;15704;48.834;8.736;2023-02-10T06:26:23;55.85;;;22.35;;
28483;SDS011;15704;48.834;8.736;2023-02-10T06:28:49;50.88;;;21.85;;
28483;SDS011;15704;48.834;8.736;2023-02-10T06:31:16;60.15;;;24.20;;
28483;SDS011;15704;48.834;8.736;2023-02-10T06:33:43;62.00;;;24.67;;
28483;SDS011;15704;48.834;8.736;2023-02-10T06:36:10;59.13;;;24.27;;
28483;SDS011;15704;48.834;8.736;2023-02-10T06:38:37;71.93;;;27.77;;
28483;SDS011;15704;48.834;8.736;2023-02-10T06:41:04;61.15;;;25.63;;
28483;SDS011;15704;48.834;8.736;2023-02-10T06:43:32;59.50;;;24.33;;
28483;SDS011;15704;48.834;8.736;2023-02-10T06:45:59;54.42;;;23.05;;
28483;SDS011;15704;48.834;8.736;2023-02-10T06:48:25;55.97;;;23.63;;
28483;SDS011;15704;48.834;8.736;2023-02-10T06:50:52;63.03;;;22.75;;
28483;SDS011;15704;48.834;8.736;2023-02-10T06:53:19;48.85;;;22.77;;
28483;SDS011;15704;48.834;8.736;2023-02-10T06:55:46;52.78;;;21.92;;
28483;SDS011;15704;48.834;8.736;2023-02-10T06:58:14;46.60;;;20.40;;
28483;SDS011;15704;48.834;8.736;2023-02-10T07:00:41;45.33;;;19.10;;
28483;SDS011;15704;48.834;8.736;2023-02-10T07:03:08;50.08;;;21.20;;
28483;SDS011;15704;48.834;8.736;2023-02-10T07:05:34;45.08;;;19.25;;
28483;SDS011;15704;48.834;8.736;2023-02-10T07:08:02;51.42;;;20.13;;
28483;SDS011;15704;48.834;8.736;2023-02-10T07:10:32;46.20;;;18.63;;
28483;SDS011;15704;48.834;8.736;2023-02-10T07:12:59;42.92;;;18.77;;
28483;SDS011;15704;48.834;8.736;2023-02-10T07:15:26;49.58;;;19.73;;
28483;SDS011;15704;48.834;8.736;2023-02-10T07:17:53;48.53;;;19.05;;
28483;SDS011;15704;48.834;8.736;2023-02-10T07:20:20;56.38;;;20.25;;
28483;SDS011;15704;48.834;8.736;2023-02-10T07:22:47;42.85;;;18.50;;
28483;SDS011;15704;48.834;8.736;2023-02-10T07:25:14;35.67;;;16.88;;
28483;SDS011;15704;48.834;8.736;2023-02-10T07:27:41;46.00;;;21.67;;
28483;SDS011;15704;48.834;8.736;2023-02-10T07:30:08;41.88;;;17.92;;
28483;SDS011;15704;48.834;8.736;2023-02-10T07:32:36;39.70;;;18.23;;
28483;SDS011;15704;48.834;8.736;2023-02-10T07:35:02;37.42;;;15.98;;
28483;SDS011;15704;48.834;8.736;2023-02-10T07:37:29;40.00;;;16.45;;
28483;SDS011;15704;48.834;8.736;2023-02-10T07:39:58;37.20;;;16.15;;
28483;SDS011;15704;48.834;8.736;2023-02-10T07:42:24;35.85;;;15.30;;
28483;SDS011;15704;48.834;8.736;2023-02-10T07:44:51;34.85;;;14.40;;
28483;SDS011;15704;48.834;8.736;2023-02-10T07:47:18;36.03;;;14.68;;
28483;SDS011;15704;48.834;8.736;2023-02-10T07:49:45;32.20;;;14.10;;
28483;SDS011;15704;48.834;8.736;2023-02-10T07:52:11;33.25;;;14.90;;
28483;SDS011;15704;48.834;8.736;2023-02-10T07:54:38;32.03;;;14.20;;
28483;SDS011;15704;48.834;8.736;2023-02-10T07:57:05;33.53;;;13.88;;
28483;SDS011;15704;48.834;8.736;2023-02-10T07:59:31;33.70;;;13.90;;
28483;SDS011;15704;48.834;8.736;2023-02-10T08:01:58;33.13;;;13.70;;
28483;SDS011;15704;48.834;8.736;2023-02-10T08:04:25;26.58;;;12.43;;
28483;SDS011;15704;48.834;8.736;2023-02-10T08:06:52;27.45;;;12.65;;
28483;SDS011;15704;48.834;8.736;2023-02-10T08:09:21;28.30;;;12.80;;
28483;SDS011;15704;48.834;8.736;2023-02-10T08:11:48;30.70;;;13.00;;
28483;SDS011;15704;48.834;8.736;2023-02-10T08:14:15;27.70;;;13.35;;
28483;SDS011;15704;48.834;8.736;2023-02-10T08:16:42;33.15;;;13.27;;
28483;SDS011;15704;48.834;8.736;2023-02-10T08:19:09;32.47;;;14.60;;
28483;SDS011;15704;48.834;8.736;2023-02-10T08:21:35;38.60;;;16.77;;
28483;SDS011;15704;48.834;8.736;2023-02-10T08:24:02;37.03;;;16.10;;
28483;SDS011;15704;48.834;8.736;2023-02-10T08:26:29;33.85;;;15.25;;
28483;SDS011;15704;48.834;8.736;2023-02-10T08:28:56;34.53;;;16.08;;
28483;SDS011;15704;48.834;8.736;2023-02-10T08:31:24;38.22;;;16.48;;
28483;SDS011;15704;48.834;8.736;2023-02-10T08:33:51;42.88;;;16.45;;
28483;SDS011;15704;48.834;8.736;2023-02-10T08:36:18;30.77;;;14.80;;
28483;SDS011;15704;48.834;8.736;2023-02-10T08:38:47;34.80;;;15.32;;
28483;SDS011;15704;48.834;8.736;2023-02-10T08:41:15;31.85;;;14.55;;
28483;SDS011;15704;48.834;8.736;2023-02-10T08:43:42;37.30;;;14.95;;
28483;SDS011;15704;48.834;8.736;2023-02-10T08:46:08;34.97;;;15.25;;
28483;SDS011;15704;48.834;8.736;2023-02-10T08:48:35;38.72;;;16.70;;
28483;SDS011;15704;48.834;8.736;2023-02-10T08:51:07;34.38;;;14.45;;
28483;SDS011;15704;48.834;8.736;2023-02-10T08:53:35;34.72;;;15.70;;
28483;SDS011;15704;48.834;8.736;2023-02-10T08:56:03;30.33;;;14.18;;
28483;SDS011;15704;48.834;8.736;2023-02-10T08:58:32;32.47;;;15.10;;
28483;SDS011;15704;48.834;8.736;2023-02-10T09:00:59;30.27;;;15.15;;
28483;SDS011;15704;48.834;8.736;2023-02-10T09:03:25;35.70;;;15.02;;
28483;SDS011;15704;48.834;8.736;2023-02-10T09:05:53;31.27;;;13.63;;
28483;SDS011;15704;48.834;8.736;2023-02-10T09:08:19;32.72;;;14.75;;
28483;SDS011;15704;48.834;8.736;2023-02-10T09:10:46;29.10;;;14.00;;
28483;SDS011;15704;48.834;8.736;2023-02-10T09:13:13;29.95;;;15.13;;
28483;SDS011;15704;48.834;8.736;2023-02-10T09:15:41;32.30;;;14.52;;
28483;SDS011;15704;48.834;8.736;2023-02-10T09:18:08;30.15;;;14.07;;
28483;SDS011;15704;48.834;8.736;2023-02-10T09:20:49;32.92;;;15.68;;
28483;SDS011;15704;48.834;8.736;2023-02-10T09:23:16;34.50;;;14.45;;
28483;SDS011;15704;48.834;8.736;2023-02-10T09:25:43;26.45;;;12.85;;
28483;SDS011;15704;48.834;8.736;2023-02-10T09:28:09;31.55;;;14.18;;
28483;SDS011;15704;48.834;8.736;2023-02-10T09:30:36;27.38;;;14.43;;
28483;SDS011;15704;48.834;8.736;2023-02-10T09:33:03;27.92;;;14.07;;
28483;SDS011;15704;48.834;8.736;2023-02-10T09:35:30;28.08;;;13.90;;
28483;SDS011;15704;48.834;8.736;2023-02-10T09:37:56;29.40;;;13.38;;
28483;SDS011;15704;48.834;8.736;2023-02-10T09:40:25;29.05;;;13.65;;
28483;SDS011;15704;48.834;8.736;2023-02-10T09:43:04;28.20;;;14.68;;
28483;SDS011;15704;48.834;8.736;2023-02-10T09:45:44;27.10;;;14.23;;
28483;SDS011;15704;48.834;8.736;2023-02-10T09:50:54;29.33;;;14.23;;
28483;SDS011;15704;48.834;8.736;2023-02-10T09:53:31;30.13;;;14.90;;
28483;SDS011;15704;48.834;8.736;2023-02-10T09:56:02;30.13;;;14.75;;
28483;SDS011;15704;48.834;8.736;2023-02-10T09:58:32;28.13;;;13.82;;
28483;SDS011;15704;48.834;8.736;2023-02-10T10:01:19;28.17;;;13.88;;
28483;SDS011;15704;48.834;8.736;2023-02-10T10:04:01;23.05;;;10.30;;
28483;SDS011;15704;48.834;8.736;2023-02-10T10:06:33;36.78;;;17.08;;
28483;SDS011;15704;48.834;8.736;2023-02-10T10:11:55;26.77;;;13.25;;
28483;SDS011;15704;48.834;8.736;2023-02-10T10:14:28;26.45;;;14.70;;
28483;SDS011;15704;48.834;8.736;2023-02-10T10:26:14;28.15;;;12.32;;
28483;SDS011;15704;48.834;8.736;2023-02-10T10:29:01;30.10;;;14.05;;
28483;SDS011;15704;48.834;8.736;2023-02-10T10:31:48;34.58;;;16.00;;
28483;SDS011;15704;48.834;8.736;2023-02-10T10:34:24;40.10;;;19.17;;
28483;SDS011;15704;48.834;8.736;2023-02-10T10:36:55;56.30;;;28.43;;
28483;SDS011;15704;48.834;8.736;2023-02-10T10:41:57;54.70;;;24.77;;
28483;SDS011;15704;48.834;8.736;2023-02-10T10:44:28;73.65;;;31.17;;
28483;SDS011;15704;48.834;8.736;2023-02-10T10:47:05;34.17;;;14.88;;
28483;SDS011;15704;48.834;8.736;2023-02-10T10:49:51;33.65;;;15.75;;
28483;SDS011;15704;48.834;8.736;2023-02-10T10:52:23;46.75;;;24.60;;
28483;SDS011;15704;48.834;8.736;2023-02-10T10:54:54;44.90;;;22.88;;
28483;SDS011;15704;48.834;8.736;2023-02-10T10:57:22;45.83;;;27.30;;
28483;SDS011;15704;48.834;8.736;2023-02-10T10:59:53;32.70;;;17.55;;
28483;SDS011;15704;48.834;8.736;2023-02-10T11:02:24;36.42;;;19.67;;
28483;SDS011;15704;48.834;8.736;2023-02-10T11:05:04;33.60;;;16.17;;
28483;SDS011;15704;48.834;8.736;2023-02-10T11:07:36;29.77;;;15.43;;
28483;SDS011;15704;48.834;8.736;2023-02-10T11:10:04;32.67;;;16.05;;
28483;SDS011;15704;48.834;8.736;2023-02-10T11:12:36;30.55;;;16.23;;
28483;SDS011;15704;48.834;8.736;2023-02-10T11:15:21;32.25;;;16.42;;
28483;SDS011;15704;48.834;8.736;2023-02-10T11:18:00;40.53;;;16.95;;
28483;SDS011;15704;48.834;8.736;2023-02-10T11:20:32;37.53;;;16.35;;
28483;SDS011;15704;48.834;8.736;2023-02-10T11:23:12;47.30;;;17.30;;
28483;SDS011;15704;48.834;8.736;2023-02-10T11:25:40;38.95;;;19.27;;
28483;SDS011;15704;48.834;8.736;2023-02-10T11:28:19;40.97;;;18.33;;
28483;SDS011;15704;48.834;8.736;2023-02-10T11:30:53;51.65;;;19.80;;
28483;SDS011;15704;48.834;8.736;2023-02-10T11:33:27;41.17;;;20.48;;
28483;SDS011;15704;48.834;8.736;2023-02-10T11:36:04;114.75;;;54.22;;
28483;SDS011;15704;48.834;8.736;2023-02-10T11:38:33;49.85;;;25.75;;
28483;SDS011;15704;48.834;8.736;2023-02-10T11:41:03;39.72;;;18.92;;
28483;SDS011;15704;48.834;8.736;2023-02-10T11:43:42;40.10;;;19.50;;
28483;SDS011;15704;48.834;8.736;2023-02-10T11:48:53;40.47;;;19.20;;
28483;SDS011;15704;48.834;8.736;2023-02-10T11:51:21;43.13;;;20.48;;
28483;SDS011;15704;48.834;8.736;2023-02-10T11:53:48;51.90;;;19.63;;
28483;SDS011;15704;48.834;8.736;2023-02-10T11:56:24;36.67;;;19.25;;
28483;SDS011;15704;48.834;8.736;2023-02-10T12:01:54;43.75;;;20.05;;
28483;SDS011;15704;48.834;8.736;2023-02-10T12:09:59;43.05;;;19.77;;
28483;SDS011;15704;48.834;8.736;2023-02-10T12:15:43;46.72;;;20.10;;
28483;SDS011;15704;48.834;8.736;2023-02-10T12:18:32;42.88;;;19.58;;
28483;SDS011;15704;48.834;8.736;2023-02-10T12:27:04;43.10;;;19.58;;
28483;SDS011;15704;48.834;8.736;2023-02-10T12:29:44;41.50;;;19.50;;
28483;SDS011;15704;48.834;8.736;2023-02-10T12:37:50;39.50;;;18.70;;
28483;SDS011;15704;48.834;8.736;2023-02-10T12:49:04;40.90;;;18.92;;
28483;SDS011;15704;48.834;8.736;2023-02-10T12:51:50;37.72;;;19.67;;
28483;SDS011;15704;48.834;8.736;2023-02-10T12:57:18;37.10;;;17.25;;
28483;SDS011;15704;48.834;8.736;2023-02-10T12:59:52;35.65;;;17.10;;
28483;SDS011;15704;48.834;8.736;2023-02-10T13:05:27;38.42;;;18.70;;
28483;SDS011;15704;48.834;8.736;2023-02-10T13:08:01;38.35;;;17.40;;
28483;SDS011;15704;48.834;8.736;2023-02-10T13:10:51;40.85;;;18.73;;
28483;SDS011;15704;48.834;8.736;2023-02-10T13:13:26;40.92;;;18.88;;
28483;SDS011;15704;48.834;8.736;2023-02-10T13:18:28;38.90;;;18.40;;
28483;SDS011;15704;48.834;8.736;2023-02-10T13:39:55;28.42;;;14.32;;
28483;SDS011;15704;48.834;8.736;2023-02-10T13:42:29;29.77;;;15.40;;
28483;SDS011;15704;48.834;8.736;2023-02-10T13:45:04;32.78;;;14.80;;
28483;SDS011;15704;48.834;8.736;2023-02-10T13:47:51;29.38;;;14.43;;
28483;SDS011;15704;48.834;8.736;2023-02-10T13:50:24;29.10;;;14.55;;
28483;SDS011;15704;48.834;8.736;2023-02-10T13:56:02;36.30;;;15.85;;
28483;SDS011;15704;48.834;8.736;2023-02-10T13:58:47;37.35;;;16.73;;
28483;SDS011;15704;48.834;8.736;2023-02-10T14:01:32;31.75;;;15.43;;
28483;SDS011;15704;48.834;8.736;2023-02-10T14:04:04;33.90;;;15.13;;
28483;SDS011;15704;48.834;8.736;2023-02-10T14:06:33;28.88;;;14.30;;
28483;SDS011;15704;48.834;8.736;2023-02-10T14:11:43;33.63;;;16.63;;
28483;SDS011;15704;48.834;8.736;2023-02-10T14:14:55;32.33;;;15.80;;
28483;SDS011;15704;48.834;8.736;2023-02-10T14:19:43;34.40;;;16.60;;
28483;SDS011;15704;48.834;8.736;2023-02-10T14:22:20;34.35;;;15.02;;
28483;SDS011;15704;48.834;8.736;2023-02-10T14:24:48;34.03;;;15.15;;
28483;SDS011;15704;48.834;8.736;2023-02-10T14:27:17;32.83;;;14.93;;
28483;SDS011;15704;48.834;8.736;2023-02-10T14:29:47;30.90;;;14.98;;
28483;SDS011;15704;48.834;8.736;2023-02-10T14:32:19;35.42;;;16.40;;
28483;SDS011;15704;48.834;8.736;2023-02-10T14:34:53;30.10;;;15.60;;
28483;SDS011;15704;48.834;8.736;2023-02-10T14:37:32;30.58;;;15.00;;
28483;SDS011;15704;48.834;8.736;2023-02-10T14:39:59;29.45;;;15.25;;
28483;SDS011;15704;48.834;8.736;2023-02-10T14:42:28;34.17;;;15.27;;
28483;SDS011;15704;48.834;8.736;2023-02-10T14:44:57;35.92;;;15.80;;
28483;SDS011;15704;48.834;8.736;2023-02-10T14:49:58;34.13;;;15.25;;
28483;SDS011;15704;48.834;8.736;2023-02-10T14:52:26;35.05;;;15.48;;
28483;SDS011;15704;48.834;8.736;2023-02-10T14:55:22;35.20;;;15.35;;
28483;SDS011;15704;48.834;8.736;2023-02-10T14:57:55;35.38;;;15.35;;
28483;SDS011;15704;48.834;8.736;2023-02-10T15:00:23;39.50;;;15.65;;
28483;SDS011;15704;48.834;8.736;2023-02-10T15:02:57;38.00;;;17.35;;
28483;SDS011;15704;48.834;8.736;2023-02-10T15:05:27;31.30;;;14.85;;
28483;SDS011;15704;48.834;8.736;2023-02-10T15:08:09;30.30;;;15.13;;
28483;SDS011;15704;48.834;8.736;2023-02-10T15:10:43;33.10;;;15.15;;
28483;SDS011;15704;48.834;8.736;2023-02-10T15:13:13;27.33;;;13.50;;
28483;SDS011;15704;48.834;8.736;2023-02-10T15:15:41;32.20;;;14.57;;
28483;SDS011;15704;48.834;8.736;2023-02-10T15:20:49;33.15;;;14.18;;
28483;SDS011;15704;48.834;8.736;2023-02-10T15:23:18;36.35;;;15.75;;
28483;SDS011;15704;48.834;8.736;2023-02-10T15:26:01;33.72;;;16.02;;
28483;SDS011;15704;48.834;8.736;2023-02-10T15:28:29;29.95;;;14.50;;
28483;SDS011;15704;48.834;8.736;2023-02-10T15:31:04;31.85;;;13.30;;
28483;SDS011;15704;48.834;8.736;2023-02-10T15:33:52;30.73;;;14.32;;
28483;SDS011;15704;48.834;8.736;2023-02-10T15:44:04;31.30;;;14.93;;
28483;SDS011;15704;48.834;8.736;2023-02-10T15:46:52;31.35;;;14.23;;
28483;SDS011;15704;48.834;8.736;2023-02-10T15:49:44;34.00;;;15.88;;
28483;SDS011;15704;48.834;8.736;2023-02-10T15:52:13;31.80;;;15.25;;
28483;SDS011;15704;48.834;8.736;2023-02-10T15:54:44;34.42;;;16.20;;
28483;SDS011;15704;48.834;8.736;2023-02-10T15:57:12;30.30;;;14.63;;
28483;SDS011;15704;48.834;8.736;2023-02-10T15:59:39;34.90;;;15.95;;
28483;SDS011;15704;48.834;8.736;2023-02-10T16:02:06;32.90;;;15.32;;
28483;SDS011;15704;48.834;8.736;2023-02-10T16:04:36;35.08;;;15.75;;
28483;SDS011;15704;48.834;8.736;2023-02-10T16:07:02;38.83;;;17.05;;
28483;SDS011;15704;48.834;8.736;2023-02-10T16:09:30;32.03;;;14.95;;
28483;SDS011;15704;48.834;8.736;2023-02-10T16:11:58;34.78;;;15.48;;
28483;SDS011;15704;48.834;8.736;2023-02-10T16:14:26;29.13;;;15.10;;
28483;SDS011;15704;48.834;8.736;2023-02-10T16:16:57;38.13;;;16.55;;
28483;SDS011;15704;48.834;8.736;2023-02-10T16:19:25;33.88;;;16.35;;
28483;SDS011;15704;48.834;8.736;2023-02-10T16:21:55;38.67;;;16.27;;
28483;SDS011;15704;48.834;8.736;2023-02-10T16:24:25;36.15;;;16.45;;
28483;SDS011;15704;48.834;8.736;2023-02-10T16:26:54;36.45;;;16.15;;
28483;SDS011;15704;48.834;8.736;2023-02-10T16:29:23;43.60;;;17.85;;
28483;SDS011;15704;48.834;8.736;2023-02-10T16:31:51;38.80;;;18.27;;
28483;SDS011;15704;48.834;8.736;2023-02-10T16:34:18;43.22;;;18.35;;